Time;durP1;ratioP1;P1;durP2;ratioP2;P2;SDS_P1;SDS_P2;PMS_P1;PMS_P2;Temp;Humidity;BMP_temperature;BMP_pressure;BME280_temperature;BME280_humidity;BME280_pressure;Samples;Min_cycle;Max_cycle;Signal;HPM_P1;HPM_P2
2021/01/13 00:00:39;;;;;;;12.73;10.20;;;;;;;;;;4967573;28;20483;-75
2021/01/13 00:03:05;;;;;;;19.00;10.00;;;;;;;;;;4971155;28;20550;-73
2021/01/13 00:05:31;;;;;;;16.93;10.40;;;;;;;;;;4969309;28;20442;-75
2021/01/13 00:07:57;;;;;;;13.15;8.95;;;;;;;;;;4978534;28;21258;-75
2021/01/13 00:10:23;;;;;;;15.83;9.70;;;;;;;;;;4985863;28;20173;-74
2021/01/13 00:12:49;;;;;;;12.40;9.43;;;;;;;;;;4971201;28;20494;-75
2021/01/13 00:15:15;;;;;;;10.90;8.50;;;;;;;;;;4972096;28;20447;-74
2021/01/13 00:17:46;;;;;;;14.07;8.85;;;;;;;;;;4971071;28;20439;-75
2021/01/13 00:20:12;;;;;;;23.63;8.75;;;;;;;;;;4971018;28;20682;-75
2021/01/13 00:22:38;;;;;;;20.73;10.48;;;;;;;;;;4973738;28;20200;-74
2021/01/13 00:25:04;;;;;;;11.67;7.77;;;;;;;;;;4971171;28;20569;-74
2021/01/13 00:27:32;;;;;;;14.50;9.30;;;;;;;;;;4972900;28;20927;-74
2021/01/13 00:29:58;;;;;;;11.45;8.55;;;;;;;;;;4969770;28;20212;-75
2021/01/13 00:32:24;;;;;;;14.13;8.50;;;;;;;;;;4972016;28;20177;-74
2021/01/13 00:34:50;;;;;;;17.90;9.03;;;;;;;;;;4970936;28;20947;-75
2021/01/13 00:37:16;;;;;;;16.50;9.30;;;;;;;;;;4971484;28;20493;-75
2021/01/13 00:39:42;;;;;;;15.82;8.35;;;;;;;;;;4972817;28;20423;-74
2021/01/13 00:42:08;;;;;;;11.52;7.15;;;;;;;;;;4971011;28;20667;-74
2021/01/13 00:44:34;;;;;;;13.30;8.25;;;;;;;;;;4972278;28;20200;-74
2021/01/13 00:47:00;;;;;;;19.52;7.93;;;;;;;;;;4970870;28;20652;-74
2021/01/13 00:49:26;;;;;;;12.45;8.68;;;;;;;;;;4968869;28;20203;-74
2021/01/13 00:51:52;;;;;;;15.50;8.55;;;;;;;;;;4971254;28;20227;-74
2021/01/13 00:54:18;;;;;;;11.30;9.03;;;;;;;;;;4969910;28;20223;-74
2021/01/13 00:56:45;;;;;;;13.67;7.97;;;;;;;;;;4972422;28;20416;-75
2021/01/13 00:59:11;;;;;;;13.65;9.10;;;;;;;;;;4970601;28;20574;-75
2021/01/13 01:01:38;;;;;;;19.25;8.57;;;;;;;;;;4970008;28;20188;-74
2021/01/13 01:04:05;;;;;;;14.07;8.68;;;;;;;;;;4971475;28;20289;-74
2021/01/13 01:06:31;;;;;;;13.45;7.50;;;;;;;;;;4967399;28;20191;-74
2021/01/13 01:08:57;;;;;;;15.98;8.55;;;;;;;;;;4971109;28;20679;-74
2021/01/13 01:11:24;;;;;;;11.20;7.15;;;;;;;;;;4972086;28;20184;-74
2021/01/13 01:13:50;;;;;;;13.50;8.57;;;;;;;;;;4971151;28;20223;-75
2021/01/13 01:16:16;;;;;;;21.03;8.50;;;;;;;;;;4970725;28;20271;-75
2021/01/13 01:18:42;;;;;;;17.58;8.27;;;;;;;;;;4988023;28;20813;-74
2021/01/13 01:21:09;;;;;;;13.93;8.65;;;;;;;;;;4970015;28;20243;-75
2021/01/13 01:23:35;;;;;;;17.65;8.60;;;;;;;;;;4970875;28;20629;-74
2021/01/13 01:26:01;;;;;;;9.15;8.25;;;;;;;;;;4970627;28;20263;-74
2021/01/13 01:28:28;;;;;;;11.60;8.40;;;;;;;;;;4960564;28;20215;-74
2021/01/13 01:30:53;;;;;;;11.15;8.80;;;;;;;;;;4969801;28;20258;-74
2021/01/13 01:33:19;;;;;;;9.53;8.53;;;;;;;;;;4969004;28;20204;-74
2021/01/13 01:35:45;;;;;;;12.23;8.23;;;;;;;;;;4971528;28;20542;-74
2021/01/13 01:38:11;;;;;;;13.75;7.47;;;;;;;;;;4970864;28;20827;-75
2021/01/13 01:40:37;;;;;;;18.83;7.83;;;;;;;;;;4969601;28;20184;-74
2021/01/13 01:43:04;;;;;;;13.10;8.50;;;;;;;;;;4970794;28;20455;-74
2021/01/13 01:45:31;;;;;;;19.40;8.55;;;;;;;;;;4970671;28;20474;-74
2021/01/13 01:48:00;;;;;;;13.77;8.25;;;;;;;;;;4971784;28;20630;-74
2021/01/13 01:50:28;;;;;;;15.00;6.90;;;;;;;;;;4969804;28;20184;-74
2021/01/13 01:53:02;;;;;;;17.55;8.82;;;;;;;;;;4970485;28;20221;-75
2021/01/13 01:55:29;;;;;;;10.40;7.57;;;;;;;;;;4968876;28;20184;-74
2021/01/13 01:57:58;;;;;;;11.07;8.05;;;;;;;;;;4971601;28;20184;-74
2021/01/13 02:00:30;;;;;;;15.27;8.05;;;;;;;;;;4968994;28;20187;-74
2021/01/13 02:03:00;;;;;;;12.05;7.18;;;;;;;;;;4974571;28;20191;-74
2021/01/13 02:05:26;;;;;;;16.40;9.13;;;;;;;;;;4969319;28;20239;-72
2021/01/13 02:07:52;;;;;;;15.98;9.27;;;;;;;;;;4985539;28;20588;-73
2021/01/13 02:10:18;;;;;;;9.90;7.72;;;;;;;;;;4971884;28;20192;-73
2021/01/13 02:12:51;;;;;;;13.53;7.43;;;;;;;;;;4963690;28;20223;-72
2021/01/13 02:15:18;;;;;;;14.27;8.55;;;;;;;;;;4974520;28;20498;-72
2021/01/13 02:17:44;;;;;;;10.07;8.15;;;;;;;;;;4974436;28;20176;-72
2021/01/13 02:20:10;;;;;;;11.60;8.82;;;;;;;;;;4971893;28;20191;-73
2021/01/13 02:22:51;;;;;;;14.05;9.10;;;;;;;;;;4974347;28;20184;-73
2021/01/13 02:25:37;;;;;;;14.32;8.90;;;;;;;;;;4973991;28;20235;-72
2021/01/13 02:28:16;;;;;;;15.32;7.72;;;;;;;;;;4974279;28;20219;-73
2021/01/13 02:30:44;;;;;;;11.57;8.38;;;;;;;;;;4973249;28;20195;-73
2021/01/13 02:33:16;;;;;;;12.07;8.75;;;;;;;;;;4972203;28;20214;-73
2021/01/13 02:36:01;;;;;;;15.18;8.13;;;;;;;;;;4973668;28;20243;-74
2021/01/13 02:38:31;;;;;;;8.25;6.90;;;;;;;;;;4962580;28;20575;-73
2021/01/13 02:40:59;;;;;;;15.63;9.48;;;;;;;;;;4974989;28;20663;-73
2021/01/13 02:43:28;;;;;;;12.18;9.00;;;;;;;;;;4972389;28;20826;-72
2021/01/13 02:45:58;;;;;;;15.45;8.63;;;;;;;;;;4974501;28;20675;-72
2021/01/13 02:48:24;;;;;;;13.32;8.82;;;;;;;;;;4972772;28;20212;-73
2021/01/13 02:50:57;;;;;;;13.55;9.38;;;;;;;;;;4972775;28;20562;-73
2021/01/13 02:53:23;;;;;;;19.33;9.80;;;;;;;;;;4972899;28;20294;-73
2021/01/13 02:55:49;;;;;;;18.33;9.87;;;;;;;;;;4972099;28;20675;-74
2021/01/13 02:58:19;;;;;;;13.30;9.57;;;;;;;;;;4968664;28;20462;-74
2021/01/13 03:00:46;;;;;;;14.40;9.15;;;;;;;;;;4973423;28;20450;-72
2021/01/13 03:03:12;;;;;;;13.65;9.57;;;;;;;;;;4972142;28;20209;-73
2021/01/13 03:05:38;;;;;;;10.82;9.25;;;;;;;;;;4973348;28;20694;-72
2021/01/13 03:08:07;;;;;;;15.70;9.75;;;;;;;;;;4972992;28;20207;-73
2021/01/13 03:10:35;;;;;;;18.33;8.65;;;;;;;;;;4972754;28;20215;-74
2021/01/13 03:13:02;;;;;;;15.73;8.60;;;;;;;;;;4970018;28;20219;-73
2021/01/13 03:15:29;;;;;;;20.77;11.15;;;;;;;;;;4969529;28;20209;-74
2021/01/13 03:18:01;;;;;;;12.40;9.45;;;;;;;;;;4973476;28;20185;-74
2021/01/13 03:20:37;;;;;;;18.67;8.43;;;;;;;;;;4969741;28;20183;-73
2021/01/13 03:23:13;;;;;;;15.85;9.95;;;;;;;;;;4973297;28;20204;-73
2021/01/13 03:25:47;;;;;;;16.52;9.55;;;;;;;;;;4972008;28;20286;-73
2021/01/13 03:28:15;;;;;;;17.58;11.55;;;;;;;;;;4972011;28;20219;-76
2021/01/13 03:30:42;;;;;;;16.83;10.10;;;;;;;;;;4961784;28;20193;-74
2021/01/13 03:33:11;;;;;;;26.10;10.93;;;;;;;;;;4970844;28;20208;-72
2021/01/13 03:35:44;;;;;;;13.60;10.48;;;;;;;;;;4972397;28;20201;-73
2021/01/13 03:38:17;;;;;;;18.23;10.57;;;;;;;;;;4973755;28;20188;-72
2021/01/13 03:40:44;;;;;;;17.95;10.27;;;;;;;;;;4964891;28;20751;-73
2021/01/13 03:43:20;;;;;;;24.15;10.70;;;;;;;;;;4974095;28;20216;-73
2021/01/13 03:45:47;;;;;;;13.75;10.13;;;;;;;;;;4983662;28;20807;-73
2021/01/13 03:48:32;;;;;;;24.83;10.40;;;;;;;;;;4970761;28;20305;-73
2021/01/13 03:50:58;;;;;;;13.95;10.32;;;;;;;;;;4971723;28;20217;-73
2021/01/13 03:53:27;;;;;;;16.38;9.25;;;;;;;;;;4971417;28;20208;-75
2021/01/13 03:55:53;;;;;;;20.58;10.57;;;;;;;;;;4972666;28;20184;-75
2021/01/13 03:58:44;;;;;;;15.20;11.75;;;;;;;;;;4963622;28;20189;-75
2021/01/13 04:01:19;;;;;;;20.48;10.60;;;;;;;;;;4962620;28;20184;-75
2021/01/13 04:04:04;;;;;;;13.00;11.27;;;;;;;;;;4955053;28;20628;-75
2021/01/13 04:06:30;;;;;;;15.07;11.95;;;;;;;;;;4972687;28;20262;-75
2021/01/13 04:09:01;;;;;;;19.48;11.48;;;;;;;;;;4972657;28;20680;-73
2021/01/13 04:11:29;;;;;;;17.52;10.10;;;;;;;;;;4973717;28;20191;-75
2021/01/13 04:14:02;;;;;;;14.20;10.20;;;;;;;;;;4966885;28;20204;-75
2021/01/13 04:16:35;;;;;;;17.45;11.10;;;;;;;;;;4972442;28;20239;-74
2021/01/13 04:19:01;;;;;;;13.40;11.30;;;;;;;;;;4963819;28;20695;-74
2021/01/13 04:21:27;;;;;;;16.40;12.10;;;;;;;;;;4972910;28;20176;-75
2021/01/13 04:23:57;;;;;;;15.32;10.70;;;;;;;;;;4973216;28;20287;-76
2021/01/13 04:26:23;;;;;;;17.63;12.77;;;;;;;;;;4979812;28;20246;-75
2021/01/13 04:28:49;;;;;;;19.02;13.00;;;;;;;;;;4992627;28;20206;-75
2021/01/13 04:31:15;;;;;;;17.08;11.20;;;;;;;;;;4975679;28;20180;-75
2021/01/13 04:33:41;;;;;;;13.60;10.73;;;;;;;;;;4966686;28;20209;-75
2021/01/13 04:36:07;;;;;;;17.48;11.10;;;;;;;;;;4969920;28;20176;-75
2021/01/13 04:38:35;;;;;;;24.38;12.40;;;;;;;;;;4973072;28;20238;-74
2021/01/13 04:41:03;;;;;;;20.50;11.23;;;;;;;;;;4973287;28;20176;-74
2021/01/13 04:43:32;;;;;;;18.50;12.00;;;;;;;;;;4971989;28;20226;-75
2021/01/13 04:46:08;;;;;;;17.17;12.63;;;;;;;;;;4971618;28;20528;-75
2021/01/13 04:48:40;;;;;;;18.10;10.90;;;;;;;;;;4971771;28;20286;-75
2021/01/13 04:51:06;;;;;;;19.65;12.85;;;;;;;;;;4973904;28;20791;-75
2021/01/13 04:53:34;;;;;;;16.90;11.83;;;;;;;;;;4972637;28;20222;-74
2021/01/13 04:56:00;;;;;;;13.65;11.60;;;;;;;;;;4964289;28;20439;-73
2021/01/13 04:58:45;;;;;;;27.35;13.02;;;;;;;;;;4953595;29;20237;-74
2021/01/13 05:01:10;;;;;;;25.70;12.00;;;;;;;;;;4969762;28;20673;-75
2021/01/13 05:03:36;;;;;;;20.50;13.43;;;;;;;;;;4984297;28;20208;-74
2021/01/13 05:06:27;;;;;;;28.30;13.00;;;;;;;;;;4971672;28;20439;-75
2021/01/13 05:09:06;;;;;;;19.02;13.80;;;;;;;;;;4972434;28;20467;-75
2021/01/13 05:11:42;;;;;;;25.35;13.65;;;;;;;;;;4971030;28;20549;-75
2021/01/13 05:14:08;;;;;;;21.15;14.23;;;;;;;;;;4972887;28;20316;-75
2021/01/13 05:16:49;;;;;;;20.15;14.20;;;;;;;;;;4971853;28;20184;-75
2021/01/13 05:19:31;;;;;;;22.17;14.38;;;;;;;;;;4970575;28;20185;-75
2021/01/13 05:22:01;;;;;;;26.48;13.65;;;;;;;;;;4971741;28;20560;-75
2021/01/13 05:24:27;;;;;;;27.35;14.52;;;;;;;;;;4961544;28;20205;-74
2021/01/13 05:27:01;;;;;;;25.67;14.02;;;;;;;;;;4968238;28;20184;-75
2021/01/13 05:29:27;;;;;;;17.90;13.57;;;;;;;;;;4971522;28;20201;-74
2021/01/13 05:31:54;;;;;;;27.10;14.80;;;;;;;;;;4972080;28;20172;-73
2021/01/13 05:34:21;;;;;;;18.40;13.95;;;;;;;;;;4969657;28;20554;-74
2021/01/13 05:37:05;;;;;;;20.27;14.32;;;;;;;;;;4972241;28;20180;-74
2021/01/13 05:39:33;;;;;;;21.88;14.25;;;;;;;;;;4986573;28;20648;-75
2021/01/13 05:42:01;;;;;;;26.35;15.20;;;;;;;;;;4972672;28;20187;-73
2021/01/13 05:44:29;;;;;;;23.60;14.48;;;;;;;;;;4971224;28;20203;-74
2021/01/13 05:47:01;;;;;;;17.75;13.80;;;;;;;;;;4976671;28;20180;-75
2021/01/13 05:49:27;;;;;;;21.08;14.70;;;;;;;;;;4975846;28;20290;-74
2021/01/13 05:51:53;;;;;;;17.05;14.20;;;;;;;;;;4974873;28;20267;-75
2021/01/13 05:54:19;;;;;;;18.60;14.68;;;;;;;;;;4974114;28;20234;-75
2021/01/13 05:56:45;;;;;;;22.73;13.40;;;;;;;;;;4974447;28;20191;-75
2021/01/13 05:59:14;;;;;;;20.00;13.13;;;;;;;;;;4975733;28;20180;-75
2021/01/13 06:01:39;;;;;;;16.15;11.80;;;;;;;;;;4978069;28;20279;-76
2021/01/13 06:04:06;;;;;;;18.37;12.77;;;;;;;;;;4978968;28;20769;-75
2021/01/13 06:06:35;;;;;;;15.60;11.63;;;;;;;;;;4981974;28;20470;-75
2021/01/13 06:09:05;;;;;;;19.33;12.52;;;;;;;;;;4985418;28;20621;-76
2021/01/13 06:11:34;;;;;;;16.58;12.65;;;;;;;;;;4979720;28;20183;-75
2021/01/13 06:14:06;;;;;;;18.83;11.52;;;;;;;;;;4983118;28;20203;-75
2021/01/13 06:16:32;;;;;;;20.40;12.10;;;;;;;;;;4980108;28;20792;-75
2021/01/13 06:18:59;;;;;;;14.52;11.48;;;;;;;;;;4991084;28;20215;-75
2021/01/13 06:21:25;;;;;;;13.60;11.35;;;;;;;;;;4975775;28;20188;-76
2021/01/13 06:23:52;;;;;;;24.48;12.25;;;;;;;;;;4980202;28;20230;-75
2021/01/13 06:26:19;;;;;;;16.15;10.75;;;;;;;;;;4983732;28;20184;-75
2021/01/13 06:29:04;;;;;;;17.20;11.88;;;;;;;;;;4979065;28;20692;-75
2021/01/13 06:31:41;;;;;;;13.98;11.90;;;;;;;;;;4974899;28;20184;-75
2021/01/13 06:34:16;;;;;;;14.57;9.50;;;;;;;;;;4974589;28;20625;-75
2021/01/13 06:36:54;;;;;;;16.02;11.02;;;;;;;;;;4974771;28;20176;-75
2021/01/13 06:39:22;;;;;;;14.75;11.05;;;;;;;;;;4975058;28;20643;-76
2021/01/13 06:41:49;;;;;;;17.48;9.57;;;;;;;;;;4973366;28;20537;-75
2021/01/13 06:44:16;;;;;;;17.10;11.70;;;;;;;;;;4979835;28;20204;-75
2021/01/13 06:46:42;;;;;;;13.05;10.70;;;;;;;;;;4973501;28;20659;-75
2021/01/13 06:49:11;;;;;;;15.10;9.77;;;;;;;;;;4973141;28;20207;-75
2021/01/13 06:51:41;;;;;;;22.70;10.18;;;;;;;;;;4973254;28;20181;-75
2021/01/13 06:54:07;;;;;;;12.63;9.07;;;;;;;;;;4974430;28;20247;-75
2021/01/13 06:56:35;;;;;;;17.42;9.40;;;;;;;;;;4973504;28;20184;-76
2021/01/13 06:59:01;;;;;;;21.33;10.45;;;;;;;;;;4973190;28;20215;-76
2021/01/13 07:01:28;;;;;;;14.98;10.40;;;;;;;;;;4973018;28;20323;-76
2021/01/13 07:03:58;;;;;;;16.92;10.07;;;;;;;;;;4973193;28;20609;-76
2021/01/13 07:06:24;;;;;;;19.85;10.95;;;;;;;;;;4954914;28;20184;-75
2021/01/13 07:08:51;;;;;;;17.42;11.00;;;;;;;;;;4954111;28;20274;-75
2021/01/13 07:11:17;;;;;;;25.50;11.10;;;;;;;;;;4955274;29;20180;-75
2021/01/13 07:13:48;;;;;;;17.90;11.65;;;;;;;;;;4968940;28;20196;-75
2021/01/13 07:16:15;;;;;;;14.43;10.52;;;;;;;;;;4994031;28;20160;-76
2021/01/13 07:18:42;;;;;;;16.75;11.23;;;;;;;;;;4977903;28;20663;-76
2021/01/13 07:21:11;;;;;;;15.50;10.60;;;;;;;;;;4974197;28;20199;-77
2021/01/13 07:23:41;;;;;;;17.23;11.98;;;;;;;;;;4976236;28;20635;-76
2021/01/13 07:26:07;;;;;;;14.35;12.05;;;;;;;;;;4973171;28;20184;-76
2021/01/13 07:28:34;;;;;;;20.15;12.77;;;;;;;;;;4973572;28;20283;-76
2021/01/13 07:31:01;;;;;;;22.23;14.65;;;;;;;;;;4973854;28;20183;-75
2021/01/13 07:33:29;;;;;;;13.63;12.15;;;;;;;;;;4971731;28;20223;-76
2021/01/13 07:35:58;;;;;;;24.08;13.18;;;;;;;;;;4973487;28;20172;-75
2021/01/13 07:38:29;;;;;;;18.27;11.45;;;;;;;;;;4973941;28;20627;-75
2021/01/13 07:40:55;;;;;;;17.58;12.32;;;;;;;;;;4973979;28;20176;-75
2021/01/13 07:43:38;;;;;;;18.70;14.07;;;;;;;;;;4978093;28;20200;-76
2021/01/13 07:46:08;;;;;;;28.67;12.63;;;;;;;;;;4991852;28;20461;-76
2021/01/13 07:48:57;;;;;;;18.67;12.20;;;;;;;;;;4984534;28;20267;-75
2021/01/13 07:51:25;;;;;;;21.85;15.05;;;;;;;;;;4952783;28;20185;-75
2021/01/13 07:54:04;;;;;;;17.38;13.68;;;;;;;;;;4965634;28;20211;-75
2021/01/13 07:56:33;;;;;;;24.30;12.85;;;;;;;;;;4970918;28;20514;-75
2021/01/13 07:59:21;;;;;;;24.30;14.20;;;;;;;;;;4972787;28;20185;-75
2021/01/13 08:01:47;;;;;;;20.17;12.48;;;;;;;;;;4973019;28;20183;-75
2021/01/13 08:04:45;;;;;;;24.73;13.07;;;;;;;;;;4972526;28;20204;-75
2021/01/13 08:07:15;;;;;;;18.42;13.30;;;;;;;;;;4970609;28;20440;-75
2021/01/13 08:09:48;;;;;;;14.60;12.20;;;;;;;;;;4970734;28;20207;-75
2021/01/13 08:12:36;;;;;;;14.13;11.80;;;;;;;;;;4969424;28;20263;-75
2021/01/13 08:15:01;;;;;;;12.77;11.43;;;;;;;;;;4972603;28;20188;-75
2021/01/13 08:18:09;;;;;;;17.40;13.27;;;;;;;;;;4973316;28;20230;-75
2021/01/13 08:20:37;;;;;;;20.55;11.73;;;;;;;;;;4971585;28;20458;-75
2021/01/13 08:23:18;;;;;;;21.77;13.18;;;;;;;;;;4972830;28;20204;-75
2021/01/13 08:25:54;;;;;;;20.25;11.82;;;;;;;;;;4972574;28;20180;-75
2021/01/13 08:28:21;;;;;;;24.33;12.30;;;;;;;;;;4972050;28;20204;-75
2021/01/13 08:30:50;;;;;;;25.42;12.70;;;;;;;;;;4972831;28;20187;-75
2021/01/13 08:33:20;;;;;;;17.83;11.75;;;;;;;;;;4972772;28;20188;-75
2021/01/13 08:35:52;;;;;;;27.80;12.77;;;;;;;;;;4970252;28;20176;-75
2021/01/13 08:38:18;;;;;;;22.17;12.13;;;;;;;;;;4973121;28;20722;-75
2021/01/13 08:40:45;;;;;;;18.80;11.95;;;;;;;;;;4972722;28;20184;-75
2021/01/13 08:43:13;;;;;;;17.38;12.02;;;;;;;;;;4975163;28;20272;-76
2021/01/13 08:45:43;;;;;;;26.33;12.20;;;;;;;;;;4992356;28;20172;-75
2021/01/13 08:48:10;;;;;;;15.85;11.43;;;;;;;;;;4990777;28;20752;-75
2021/01/13 08:50:37;;;;;;;14.50;11.05;;;;;;;;;;4972307;28;20259;-75
2021/01/13 08:53:03;;;;;;;15.93;11.50;;;;;;;;;;4972138;28;20193;-75
2021/01/13 08:55:30;;;;;;;15.75;10.68;;;;;;;;;;4972357;28;20238;-75
2021/01/13 08:58:08;;;;;;;26.95;12.52;;;;;;;;;;4972436;28;20223;-75
2021/01/13 09:00:36;;;;;;;16.05;8.98;;;;;;;;;;4970926;28;20191;-75
2021/01/13 09:03:06;;;;;;;19.15;10.50;;;;;;;;;;4971517;28;20196;-76
2021/01/13 09:05:33;;;;;;;14.80;10.40;;;;;;;;;;4972033;28;20207;-75
2021/01/13 09:08:01;;;;;;;20.63;9.27;;;;;;;;;;4972277;28;20180;-75
2021/01/13 09:10:46;;;;;;;15.18;8.77;;;;;;;;;;4972523;28;20219;-75
2021/01/13 09:13:31;;;;;;;16.92;9.45;;;;;;;;;;4975359;28;20742;-75
2021/01/13 09:15:57;;;;;;;13.23;8.85;;;;;;;;;;4990086;28;20269;-76
2021/01/13 09:18:23;;;;;;;13.80;8.43;;;;;;;;;;4991712;28;20180;-76
2021/01/13 09:20:50;;;;;;;15.93;9.98;;;;;;;;;;4973193;28;20180;-76
2021/01/13 09:23:25;;;;;;;19.42;8.55;;;;;;;;;;4971849;28;20200;-76
2021/01/13 09:25:56;;;;;;;12.57;8.95;;;;;;;;;;4970652;28;20182;-76
2021/01/13 09:28:22;;;;;;;15.35;9.88;;;;;;;;;;4972146;28;20624;-76
2021/01/13 09:30:48;;;;;;;11.75;8.07;;;;;;;;;;4972173;28;20223;-75
2021/01/13 09:33:18;;;;;;;18.63;7.22;;;;;;;;;;4971931;28;20188;-76
2021/01/13 09:35:48;;;;;;;9.27;8.30;;;;;;;;;;4971342;28;20727;-76
2021/01/13 09:38:26;;;;;;;11.27;8.52;;;;;;;;;;4971798;28;20255;-75
2021/01/13 09:40:57;;;;;;;22.85;8.45;;;;;;;;;;4971751;28;20168;-75
2021/01/13 09:43:46;;;;;;;14.25;9.20;;;;;;;;;;4971704;28;20250;-75
2021/01/13 09:46:21;;;;;;;15.15;8.70;;;;;;;;;;4944785;29;20224;-76
2021/01/13 09:49:06;;;;;;;11.25;8.15;;;;;;;;;;4952482;29;20228;-75
2021/01/13 09:51:33;;;;;;;13.32;8.23;;;;;;;;;;4952527;29;20185;-76
2021/01/13 09:54:01;;;;;;;12.70;9.50;;;;;;;;;;4990632;22;20229;-75
2021/01/13 09:56:27;;;;;;;12.95;9.25;;;;;;;;;;4990003;28;20180;-75
2021/01/13 09:58:53;;;;;;;17.63;11.43;;;;;;;;;;4985611;28;20188;-75
2021/01/13 10:01:20;;;;;;;10.02;8.20;;;;;;;;;;4971728;28;20962;-75
2021/01/13 10:03:47;;;;;;;11.07;8.82;;;;;;;;;;4985771;28;20231;-75
2021/01/13 10:06:16;;;;;;;14.27;9.55;;;;;;;;;;4990854;28;20595;-75
2021/01/13 10:08:42;;;;;;;12.98;8.98;;;;;;;;;;4991537;28;20195;-75
2021/01/13 10:11:09;;;;;;;15.23;8.98;;;;;;;;;;4989697;28;20214;-75
2021/01/13 10:13:37;;;;;;;14.82;8.23;;;;;;;;;;4970888;28;20219;-75
2021/01/13 10:16:04;;;;;;;14.60;8.95;;;;;;;;;;4971365;28;20288;-75
2021/01/13 10:18:30;;;;;;;11.95;9.35;;;;;;;;;;4971920;28;20189;-75
2021/01/13 10:20:57;;;;;;;15.88;9.30;;;;;;;;;;4971948;28;20192;-75
2021/01/13 10:23:30;;;;;;;11.77;8.65;;;;;;;;;;4973658;28;20207;-75
2021/01/13 10:26:03;;;;;;;15.25;9.10;;;;;;;;;;4991105;28;20176;-75
2021/01/13 10:28:29;;;;;;;15.25;8.48;;;;;;;;;;4965852;28;20688;-75
2021/01/13 10:30:56;;;;;;;18.08;8.45;;;;;;;;;;4973171;28;20208;-76
2021/01/13 10:33:40;;;;;;;10.75;8.85;;;;;;;;;;4975989;28;20243;-75
2021/01/13 10:36:06;;;;;;;15.13;8.43;;;;;;;;;;4975826;28;20188;-75
2021/01/13 10:38:36;;;;;;;9.80;7.32;;;;;;;;;;4973993;28;20552;-75
2021/01/13 10:41:03;;;;;;;10.80;6.47;;;;;;;;;;4974863;28;20211;-75
2021/01/13 10:43:30;;;;;;;10.70;7.70;;;;;;;;;;4975198;28;20211;-75
2021/01/13 10:45:57;;;;;;;10.20;6.78;;;;;;;;;;4973300;28;20195;-75
2021/01/13 10:48:23;;;;;;;13.27;8.18;;;;;;;;;;4971260;28;20651;-75
2021/01/13 10:50:50;;;;;;;14.70;7.57;;;;;;;;;;4974762;28;20263;-75
2021/01/13 10:53:16;;;;;;;16.10;7.65;;;;;;;;;;4976158;28;20206;-75
2021/01/13 10:55:48;;;;;;;16.73;7.65;;;;;;;;;;4993886;28;20175;-75
2021/01/13 10:58:16;;;;;;;16.33;6.95;;;;;;;;;;4993561;28;20190;-75
2021/01/13 11:00:42;;;;;;;11.00;6.65;;;;;;;;;;4991106;28;20187;-75
2021/01/13 11:03:08;;;;;;;19.45;7.22;;;;;;;;;;4974664;28;20709;-74
2021/01/13 11:05:34;;;;;;;11.07;7.18;;;;;;;;;;4974317;28;20211;-74
2021/01/13 11:08:03;;;;;;;13.50;7.22;;;;;;;;;;4976741;28;20180;-75
2021/01/13 11:10:29;;;;;;;19.05;7.30;;;;;;;;;;4993646;28;20558;-74
2021/01/13 11:13:05;;;;;;;10.00;6.68;;;;;;;;;;4982557;28;20195;-74
2021/01/13 11:15:31;;;;;;;12.32;6.00;;;;;;;;;;4974364;28;20298;-75
2021/01/13 11:17:58;;;;;;;13.60;7.53;;;;;;;;;;4974769;28;20183;-74
2021/01/13 11:20:24;;;;;;;11.43;6.20;;;;;;;;;;4991545;28;20190;-75
2021/01/13 11:22:57;;;;;;;10.63;6.30;;;;;;;;;;4974996;28;20246;-75
2021/01/13 11:25:23;;;;;;;9.68;6.53;;;;;;;;;;4974216;28;20180;-75
2021/01/13 11:27:59;;;;;;;15.30;5.90;;;;;;;;;;4974190;28;20188;-74
2021/01/13 11:30:26;;;;;;;10.27;5.25;;;;;;;;;;4974209;28;20196;-74
2021/01/13 11:32:53;;;;;;;8.02;6.80;;;;;;;;;;4974348;28;20252;-74
2021/01/13 11:35:26;;;;;;;7.45;5.97;;;;;;;;;;4967559;28;20188;-75
2021/01/13 11:38:06;;;;;;;12.25;6.50;;;;;;;;;;4977092;28;20183;-74
2021/01/13 11:40:37;;;;;;;15.95;6.07;;;;;;;;;;4982533;28;20187;-75
2021/01/13 11:43:06;;;;;;;8.20;5.80;;;;;;;;;;4973844;28;20614;-75
2021/01/13 11:45:37;;;;;;;12.57;6.70;;;;;;;;;;4974156;28;20244;-75
2021/01/13 11:48:07;;;;;;;8.75;6.50;;;;;;;;;;4979516;28;20211;-75
2021/01/13 11:50:37;;;;;;;12.30;6.95;;;;;;;;;;4980011;28;20184;-74
2021/01/13 11:53:05;;;;;;;4.88;3.50;;;;;;;;;;4987145;28;20297;-75
2021/01/13 11:55:32;;;;;;;11.07;5.63;;;;;;;;;;4976121;28;20189;-76
2021/01/13 11:57:58;;;;;;;15.30;6.10;;;;;;;;;;4973854;28;20259;-76
2021/01/13 12:00:27;;;;;;;6.43;5.00;;;;;;;;;;4977713;28;20183;-75
2021/01/13 12:02:58;;;;;;;9.88;4.90;;;;;;;;;;4993117;28;20179;-75
2021/01/13 12:05:28;;;;;;;8.05;5.45;;;;;;;;;;4983623;28;20184;-75
2021/01/13 12:07:57;;;;;;;10.75;5.45;;;;;;;;;;4971913;28;20871;-76
2021/01/13 12:10:29;;;;;;;6.43;5.10;;;;;;;;;;4973773;28;20208;-75
2021/01/13 12:13:08;;;;;;;11.02;4.88;;;;;;;;;;4973749;28;20176;-75
2021/01/13 12:15:46;;;;;;;8.43;5.45;;;;;;;;;;4973888;28;20553;-75
2021/01/13 12:18:12;;;;;;;18.23;5.35;;;;;;;;;;4973390;28;20188;-75
2021/01/13 12:20:38;;;;;;;9.32;5.30;;;;;;;;;;4973487;28;20203;-75
2021/01/13 12:23:23;;;;;;;12.40;5.87;;;;;;;;;;4971309;28;20215;-75
2021/01/13 12:25:50;;;;;;;8.25;4.60;;;;;;;;;;4973384;28;20428;-75
2021/01/13 12:28:16;;;;;;;13.52;6.38;;;;;;;;;;4973227;28;20600;-75
2021/01/13 12:30:52;;;;;;;6.35;4.68;;;;;;;;;;4973390;28;20258;-75
2021/01/13 12:33:19;;;;;;;5.45;4.72;;;;;;;;;;4973499;28;20192;-75
2021/01/13 12:35:45;;;;;;;5.35;4.20;;;;;;;;;;4972337;28;20227;-75
2021/01/13 12:38:10;;;;;;;15.85;5.40;;;;;;;;;;4972907;28;20668;-75
2021/01/13 12:40:36;;;;;;;7.93;5.87;;;;;;;;;;4973152;28;20231;-75
2021/01/13 12:43:19;;;;;;;13.50;5.30;;;;;;;;;;4972297;28;20440;-76
2021/01/13 12:45:45;;;;;;;12.98;5.15;;;;;;;;;;4972763;28;20415;-75
2021/01/13 12:48:12;;;;;;;8.82;5.18;;;;;;;;;;4972920;28;20195;-75
2021/01/13 12:50:38;;;;;;;6.75;5.03;;;;;;;;;;4973153;28;20176;-76
2021/01/13 12:53:04;;;;;;;7.63;4.72;;;;;;;;;;4987777;28;20179;-75
2021/01/13 12:55:30;;;;;;;6.63;4.78;;;;;;;;;;4974397;28;20184;-76
2021/01/13 12:57:57;;;;;;;8.48;4.32;;;;;;;;;;4972592;28;20188;-76
2021/01/13 13:00:24;;;;;;;9.38;5.28;;;;;;;;;;4972888;28;20577;-76
2021/01/13 13:02:50;;;;;;;5.65;4.40;;;;;;;;;;4972833;28;20262;-76
2021/01/13 13:05:16;;;;;;;7.73;4.27;;;;;;;;;;4972456;28;20695;-75
2021/01/13 13:07:42;;;;;;;13.38;5.95;;;;;;;;;;4972643;28;20485;-76
2021/01/13 13:10:09;;;;;;;11.88;4.97;;;;;;;;;;4971942;28;20211;-76
2021/01/13 13:12:35;;;;;;;7.90;4.47;;;;;;;;;;4972175;28;20188;-76
2021/01/13 13:15:01;;;;;;;8.90;5.63;;;;;;;;;;4972670;28;20583;-76
2021/01/13 13:17:27;;;;;;;7.80;5.47;;;;;;;;;;4972604;28;20190;-75
2021/01/13 13:19:53;;;;;;;7.10;4.38;;;;;;;;;;4972687;28;20498;-75
2021/01/13 13:22:19;;;;;;;5.73;4.63;;;;;;;;;;4981462;28;20294;-75
2021/01/13 13:24:45;;;;;;;8.05;5.22;;;;;;;;;;4982239;28;20460;-75
2021/01/13 13:27:11;;;;;;;11.63;5.37;;;;;;;;;;4972085;28;20539;-75
2021/01/13 13:29:37;;;;;;;9.05;5.22;;;;;;;;;;4970289;28;20464;-76
2021/01/13 13:32:03;;;;;;;5.90;5.25;;;;;;;;;;4961343;28;20180;-75
2021/01/13 13:34:29;;;;;;;7.10;4.05;;;;;;;;;;4974126;28;20249;-75
2021/01/13 13:37:02;;;;;;;9.23;4.70;;;;;;;;;;4989866;28;20203;-75
2021/01/13 13:39:28;;;;;;;11.60;4.40;;;;;;;;;;4989336;28;20960;-75
2021/01/13 13:42:00;;;;;;;11.13;4.55;;;;;;;;;;4991728;28;20226;-75
2021/01/13 13:44:31;;;;;;;15.18;4.82;;;;;;;;;;4978887;28;20212;-75
2021/01/13 13:47:00;;;;;;;14.05;5.35;;;;;;;;;;4990329;28;20351;-75
2021/01/13 13:49:28;;;;;;;11.65;5.00;;;;;;;;;;4974171;28;20254;-75
2021/01/13 13:51:54;;;;;;;10.00;5.22;;;;;;;;;;4975312;28;20229;-76
2021/01/13 13:54:20;;;;;;;7.00;4.57;;;;;;;;;;4991119;28;20215;-75
2021/01/13 13:56:46;;;;;;;6.00;4.43;;;;;;;;;;4991668;28;20171;-75
2021/01/13 13:59:12;;;;;;;6.18;3.60;;;;;;;;;;4978169;28;20208;-75
2021/01/13 14:01:38;;;;;;;5.27;3.80;;;;;;;;;;4971990;28;20230;-76
2021/01/13 14:04:04;;;;;;;9.40;4.72;;;;;;;;;;4991285;28;20454;-76
2021/01/13 14:06:30;;;;;;;9.20;4.38;;;;;;;;;;4992963;28;20843;-76
2021/01/13 14:08:57;;;;;;;5.30;3.47;;;;;;;;;;4994874;28;20238;-76
2021/01/13 14:11:23;;;;;;;9.75;3.78;;;;;;;;;;4995216;28;20266;-75
2021/01/13 14:13:50;;;;;;;6.13;3.60;;;;;;;;;;4980528;28;20263;-76
2021/01/13 14:16:19;;;;;;;4.85;4.30;;;;;;;;;;4984850;28;20192;-76
2021/01/13 14:18:46;;;;;;;7.30;4.43;;;;;;;;;;4994919;28;20542;-76
2021/01/13 14:21:13;;;;;;;4.97;3.25;;;;;;;;;;4994760;28;20172;-75
2021/01/13 14:23:40;;;;;;;11.35;3.67;;;;;;;;;;4976536;28;20204;-76
2021/01/13 14:26:05;;;;;;;5.85;3.85;;;;;;;;;;4975532;28;20184;-76
2021/01/13 14:28:31;;;;;;;7.40;3.93;;;;;;;;;;4975941;28;20622;-74
2021/01/13 14:30:57;;;;;;;4.50;3.90;;;;;;;;;;4990839;28;20937;-74
2021/01/13 14:33:23;;;;;;;8.33;4.27;;;;;;;;;;4971901;28;20886;-74
2021/01/13 14:35:49;;;;;;;8.73;5.23;;;;;;;;;;4965595;28;20427;-74
2021/01/13 14:38:15;;;;;;;5.90;3.60;;;;;;;;;;4975903;28;20506;-74